createdAt,value
2019-01-26T00:02:26.518Z,0.70
2019-01-26T00:05:07.827Z,0.70
2019-01-26T00:07:49.265Z,0.70
2019-01-26T00:10:30.225Z,0.70
2019-01-26T00:13:30.482Z,0.70
2019-01-26T00:16:11.892Z,0.70
2019-01-26T00:18:52.714Z,0.70
2019-01-26T00:21:33.435Z,0.60
2019-01-26T00:24:14.299Z,0.70
2019-01-26T00:30:00.755Z,0.70
2019-01-26T00:32:41.500Z,0.60
2019-01-26T00:38:30.917Z,0.70
2019-01-26T00:41:12.456Z,0.60
2019-01-26T00:43:53.649Z,0.50
2019-01-26T00:49:31.516Z,0.40
2019-01-26T00:52:19.889Z,0.40
2019-01-26T00:55:08.449Z,0.40
2019-01-26T00:57:56.885Z,0.40
2019-01-26T01:00:45.196Z,0.30
2019-01-26T01:03:34.042Z,0.30
2019-01-26T01:06:15.507Z,0.30
2019-01-26T01:08:56.712Z,0.20
2019-01-26T01:14:45.345Z,0.20
2019-01-26T01:17:26.060Z,0.20
2019-01-26T01:20:06.719Z,0.10
2019-01-26T01:22:47.868Z,0.10
2019-01-26T01:25:29.110Z,0.00
2019-01-26T01:28:10.329Z,0.00
2019-01-26T01:30:51.422Z,0.00
2019-01-26T01:33:32.759Z,0.10
2019-01-26T01:39:19.500Z,0.10
2019-01-26T01:42:00.689Z,0.10
2019-01-26T01:48:01.807Z,0.10
2019-01-26T01:50:42.424Z,0.10
2019-01-26T01:53:23.663Z,0.10
2019-01-26T01:56:04.380Z,0.10
2019-01-26T01:58:45.934Z,0.10
2019-01-26T02:01:27.385Z,0.10
2019-01-26T02:04:08.920Z,0.10
2019-01-26T02:06:50.237Z,0.10
2019-01-26T02:09:32.029Z,0.10
2019-01-26T02:15:21.731Z,0.10
2019-01-26T02:18:02.283Z,0.10
2019-01-26T02:20:43.641Z,0.10
2019-01-26T02:23:24.408Z,0.20
2019-01-26T02:29:24.328Z,0.20
2019-01-26T02:32:04.911Z,0.20
2019-01-26T02:34:45.728Z,0.20
2019-01-26T02:37:27.253Z,0.20
2019-01-26T02:40:07.877Z,0.20
2019-01-26T02:42:49.421Z,0.20
2019-01-26T02:51:58.409Z,0.30
2019-01-26T02:54:38.013Z,0.30
2019-01-26T02:57:26.353Z,0.30
2019-01-26T03:00:18.751Z,0.30
2019-01-26T03:03:26.137Z,0.30
2019-01-26T03:09:25.865Z,0.40
2019-01-26T03:12:07.247Z,0.40
2019-01-26T03:14:48.673Z,0.40
2019-01-26T03:17:29.880Z,0.40
2019-01-26T03:20:11.068Z,0.40
2019-01-26T03:22:51.958Z,0.40
2019-01-26T03:25:33.432Z,0.40
2019-01-26T03:28:14.909Z,0.50
2019-01-26T03:30:55.874Z,0.50
2019-01-26T03:33:35.278Z,0.50
2019-01-26T03:36:23.652Z,0.50
2019-01-26T03:39:12.392Z,0.50
2019-01-26T03:42:00.784Z,0.60
2019-01-26T03:44:49.140Z,0.60
2019-01-26T03:47:37.545Z,0.60
2019-01-26T03:50:26.263Z,0.60
2019-01-26T03:53:15.057Z,0.60
2019-01-26T03:56:03.412Z,0.60
2019-01-26T03:58:51.830Z,0.60
2019-01-26T04:01:40.200Z,0.60
2019-01-26T04:04:28.579Z,0.60
2019-01-26T04:07:17.306Z,0.60
2019-01-26T04:10:05.346Z,0.60
2019-01-26T04:12:53.874Z,0.70
2019-01-26T04:15:42.326Z,0.70
2019-01-26T04:18:30.741Z,0.60
2019-01-26T04:21:19.116Z,0.60
2019-01-26T04:24:07.639Z,0.70
2019-01-26T04:26:56.072Z,0.70
2019-01-26T04:29:44.802Z,0.60
2019-01-26T04:32:33.153Z,0.70
2019-01-26T04:35:21.518Z,0.70
2019-01-26T04:38:09.932Z,0.70
2019-01-26T04:40:58.606Z,0.70
2019-01-26T04:43:46.988Z,0.70
2019-01-26T04:46:35.603Z,0.80
2019-01-26T04:49:24.024Z,0.80
2019-01-26T04:52:12.461Z,0.80
2019-01-26T04:55:00.797Z,0.80
2019-01-26T04:57:49.510Z,0.80
2019-01-26T05:00:37.580Z,0.80
2019-01-26T05:03:26.095Z,0.80
2019-01-26T05:09:15.422Z,0.80
2019-01-26T05:11:56.015Z,0.90
2019-01-26T05:17:53.946Z,0.90
2019-01-26T05:20:42.724Z,0.90
2019-01-26T05:23:31.455Z,1.00
2019-01-26T05:26:00.812Z,0.90
2019-01-26T05:28:49.249Z,1.00
2019-01-26T05:31:37.620Z,1.00
2019-01-26T05:34:25.960Z,0.90
2019-01-26T05:37:13.742Z,1.00
2019-01-26T05:42:50.949Z,1.00
2019-01-26T05:48:28.156Z,1.10
2019-01-26T05:51:16.909Z,1.10
2019-01-26T05:54:05.327Z,1.10
2019-01-26T05:56:53.816Z,1.10
2019-01-26T05:59:42.148Z,1.20
2019-01-26T06:02:30.916Z,1.20
2019-01-26T06:05:11.932Z,1.10
2019-01-26T06:07:53.265Z,1.10
2019-01-26T06:10:34.648Z,1.10
2019-01-26T06:13:15.317Z,1.20
2019-01-26T06:15:56.275Z,1.20
2019-01-26T06:21:45.812Z,1.20
2019-01-26T06:24:27.319Z,1.20
2019-01-26T06:27:09.265Z,1.20
2019-01-26T06:29:50.437Z,1.20
2019-01-26T06:32:31.765Z,1.30
2019-01-26T06:38:32.493Z,1.40
2019-01-26T06:41:13.784Z,1.30
2019-01-26T06:43:53.491Z,1.30
2019-01-26T06:46:41.837Z,1.30
2019-01-26T06:49:30.367Z,1.30
2019-01-26T06:52:19.074Z,1.40
2019-01-26T06:55:08.195Z,1.40
2019-01-26T06:57:56.637Z,1.40
2019-01-26T07:00:45.128Z,1.40
2019-01-26T07:03:32.704Z,1.40
2019-01-26T07:06:33.249Z,1.50
2019-01-26T07:09:15.103Z,1.40
2019-01-26T07:11:56.699Z,1.40
2019-01-26T07:14:36.275Z,1.40
2019-01-26T07:17:24.729Z,1.30
2019-01-26T07:20:13.192Z,1.30
2019-01-26T07:23:01.551Z,1.30
2019-01-26T07:25:50.377Z,1.30
2019-01-26T07:28:38.742Z,1.40
2019-01-26T07:31:27.401Z,1.40
2019-01-26T07:34:16.102Z,1.40
2019-01-26T07:37:04.853Z,1.30
2019-01-26T07:39:53.294Z,1.30
2019-01-26T07:42:41.737Z,1.30
2019-01-26T07:45:30.169Z,1.30
2019-01-26T07:48:18.530Z,1.40
2019-01-26T07:51:06.873Z,1.40
2019-01-26T07:53:55.317Z,1.40
2019-01-26T07:56:43.847Z,1.50
2019-01-26T07:59:32.229Z,1.70
2019-01-26T08:02:21.007Z,1.80
2019-01-26T08:08:10.359Z,1.90
2019-01-26T08:10:51.844Z,1.90
2019-01-26T08:16:38.151Z,2.00
2019-01-26T08:19:19.463Z,2.10
2019-01-26T08:22:00.305Z,2.20
2019-01-26T08:24:41.074Z,2.20
2019-01-26T08:36:33.747Z,2.70
2019-01-26T08:39:14.563Z,2.70
2019-01-26T08:41:56.290Z,2.60
2019-01-26T08:44:37.756Z,2.60
2019-01-26T08:47:19.119Z,2.60
2019-01-26T08:53:05.665Z,2.70
2019-01-26T08:55:47.130Z,2.80
2019-01-26T08:58:28.047Z,2.90
2019-01-26T09:01:09.568Z,3.00
2019-01-26T09:09:57.939Z,3.30
2019-01-26T09:15:58.181Z,3.50
2019-01-26T09:18:39.218Z,3.40
2019-01-26T09:21:20.689Z,3.20
2019-01-26T09:24:01.640Z,3.00
2019-01-26T09:26:42.286Z,2.90
2019-01-26T09:29:24.207Z,3.00
2019-01-26T09:32:05.624Z,3.10
2019-01-26T09:34:46.327Z,3.30
2019-01-26T09:37:27.241Z,3.60
2019-01-26T09:40:07.763Z,3.80
2019-01-26T09:42:49.002Z,3.80
2019-01-26T09:45:30.701Z,4.00
2019-01-26T09:48:12.506Z,4.10
2019-01-26T09:50:53.365Z,4.10
2019-01-26T09:53:34.627Z,4.20
2019-01-26T09:56:15.432Z,4.20
2019-01-26T09:58:56.888Z,4.30
2019-01-26T10:01:38.810Z,4.40
2019-01-26T10:04:20.461Z,4.40
2019-01-26T10:10:10.001Z,4.50
2019-01-26T10:12:51.309Z,4.50
2019-01-26T10:15:32.758Z,4.60
2019-01-26T10:18:14.204Z,4.60
2019-01-26T10:21:00.789Z,4.70
2019-01-26T10:23:42.297Z,4.70
2019-01-26T10:26:24.023Z,4.80
2019-01-26T10:29:04.981Z,4.80
2019-01-26T10:31:46.386Z,5.00
2019-01-26T10:37:46.192Z,5.10
2019-01-26T10:40:46.081Z,5.00
2019-01-26T10:43:27.420Z,5.00
2019-01-26T10:46:08.643Z,5.00
2019-01-26T10:48:49.330Z,5.00
2019-01-26T10:51:30.580Z,5.10
2019-01-26T11:00:39.419Z,5.20
2019-01-26T11:03:20.125Z,5.30
2019-01-26T11:06:00.153Z,5.30
2019-01-26T11:08:49.203Z,5.50
2019-01-26T11:17:13.889Z,6.00
2019-01-26T11:20:02.709Z,5.90
2019-01-26T11:22:51.289Z,5.70
2019-01-26T11:25:40.340Z,5.70
2019-01-26T11:28:28.839Z,5.70
2019-01-26T11:31:17.330Z,5.70
2019-01-26T11:34:06.628Z,5.70
2019-01-26T11:36:55.515Z,5.90
2019-01-26T11:42:54.375Z,6.00
2019-01-26T11:48:38.683Z,6.10
2019-01-26T11:54:55.613Z,6.30
2019-01-26T12:04:07.863Z,6.60
2019-01-26T12:06:59.785Z,6.60
2019-01-26T12:09:41.459Z,6.60
2019-01-26T12:12:31.034Z,6.60
2019-01-26T12:15:20.991Z,6.60
2019-01-26T12:21:07.624Z,6.40
2019-01-26T12:23:57.067Z,6.40
2019-01-26T12:27:03.245Z,6.40
2019-01-26T12:29:52.175Z,6.30
2019-01-26T12:35:56.144Z,6.30
2019-01-26T12:38:45.304Z,6.30
2019-01-26T12:41:35.033Z,6.30
2019-01-26T12:44:59.931Z,6.40
2019-01-26T12:51:02.844Z,6.50
2019-01-26T12:54:12.345Z,6.60
2019-01-26T13:00:30.235Z,6.40
2019-01-26T13:03:19.774Z,6.40
2019-01-26T13:06:00.517Z,6.40
2019-01-26T13:08:41.939Z,6.20
2019-01-26T13:11:22.651Z,6.20
2019-01-26T13:17:09.137Z,6.10
2019-01-26T13:19:50.576Z,6.00
2019-01-26T13:22:32.040Z,6.10
2019-01-26T13:25:13.595Z,6.00
2019-01-26T13:27:55.058Z,6.00
2019-01-26T13:30:36.461Z,5.90
2019-01-26T13:33:17.743Z,5.90
2019-01-26T13:35:58.504Z,5.80
2019-01-26T13:38:39.433Z,5.80
2019-01-26T13:44:26.281Z,5.80
2019-01-26T13:47:07.323Z,5.80
2019-01-26T13:49:49.227Z,5.80
2019-01-26T13:52:30.750Z,5.70
2019-01-26T13:55:12.593Z,5.70
2019-01-26T13:57:42.953Z,5.70
2019-01-26T14:03:28.975Z,5.70
2019-01-26T14:06:09.575Z,5.70
2019-01-26T14:08:51.077Z,5.60
2019-01-26T14:11:32.614Z,5.60
2019-01-26T14:14:14.164Z,5.60
2019-01-26T14:16:55.288Z,5.60
2019-01-26T14:19:36.599Z,5.60
2019-01-26T14:22:17.799Z,5.60
2019-01-26T14:24:58.954Z,5.50
2019-01-26T14:27:39.753Z,5.50
2019-01-26T14:30:21.049Z,5.50
2019-01-26T14:33:02.056Z,5.50
2019-01-26T14:45:21.085Z,5.60
2019-01-26T14:48:09.998Z,5.60
2019-01-26T14:53:56.112Z,5.50
2019-01-26T14:56:44.945Z,5.50
2019-01-26T15:02:49.087Z,5.40
2019-01-26T15:05:40.095Z,5.50
2019-01-26T15:18:44.713Z,5.20
2019-01-26T15:21:33.843Z,5.10
2019-01-26T15:27:51.864Z,5.00
2019-01-26T15:37:12.880Z,5.00
2019-01-26T15:40:01.906Z,5.00
2019-01-26T15:42:51.054Z,4.90
2019-01-26T15:48:57.161Z,4.90
2019-01-26T16:01:32.965Z,4.80
2019-01-26T16:07:42.562Z,4.80
2019-01-26T16:10:24.072Z,4.80
2019-01-26T16:13:24.402Z,4.80
2019-01-26T16:16:34.190Z,4.80
2019-01-26T16:22:12.666Z,4.80
2019-01-26T16:25:01.921Z,4.80
2019-01-26T16:28:11.421Z,4.80
2019-01-26T16:31:00.933Z,4.80
2019-01-26T16:33:50.321Z,4.80
2019-01-26T16:36:39.436Z,4.70
2019-01-26T16:39:28.528Z,4.70
2019-01-26T16:42:17.944Z,4.70
2019-01-26T16:45:23.812Z,4.60
2019-01-26T16:55:04.831Z,4.70
2019-01-26T17:10:39.893Z,4.60
2019-01-26T17:13:20.673Z,4.60
2019-01-26T17:16:01.618Z,4.60
2019-01-26T17:21:51.447Z,4.70
2019-01-26T17:24:32.549Z,4.70
2019-01-26T17:27:13.671Z,4.70
2019-01-26T17:29:55.017Z,4.70
2019-01-26T17:32:35.944Z,4.70
2019-01-26T17:35:17.176Z,4.70
2019-01-26T17:38:16.715Z,4.60
2019-01-26T17:40:58.156Z,4.60
2019-01-26T17:43:38.912Z,4.60
2019-01-26T17:46:39.181Z,4.50
2019-01-26T17:49:20.461Z,4.40
2019-01-26T17:52:01.132Z,4.30
2019-01-26T17:54:41.868Z,4.30
2019-01-26T17:57:23.268Z,4.30
2019-01-26T18:00:04.769Z,4.40
2019-01-26T18:02:46.149Z,4.50
2019-01-26T18:05:27.674Z,4.50
2019-01-26T18:08:08.529Z,4.60
2019-01-26T18:14:09.621Z,4.60
2019-01-26T18:16:51.143Z,4.60
2019-01-26T18:19:32.882Z,4.60
2019-01-26T18:22:14.255Z,4.70
2019-01-26T18:25:24.403Z,4.70
2019-01-26T18:31:50.246Z,4.60
2019-01-26T18:34:39.872Z,4.60
2019-01-26T18:37:49.991Z,4.50
2019-01-26T18:50:46.828Z,4.50
2019-01-26T18:54:12.201Z,4.50
2019-01-26T19:00:55.917Z,4.50
2019-01-26T19:04:03.327Z,4.50
2019-01-26T19:06:44.379Z,4.40
2019-01-26T19:09:25.956Z,4.40
2019-01-26T19:12:07.330Z,4.50
2019-01-26T19:14:48.657Z,4.50
2019-01-26T19:17:30.094Z,4.50
2019-01-26T19:20:11.580Z,4.50
2019-01-26T19:22:52.828Z,4.50
2019-01-26T19:29:00.073Z,4.60
2019-01-26T19:31:41.575Z,4.50
2019-01-26T19:34:22.676Z,4.50
2019-01-26T19:37:22.642Z,4.40
2019-01-26T19:40:04.157Z,4.40
2019-01-26T19:42:44.863Z,4.50
2019-01-26T19:45:26.014Z,4.40
2019-01-26T19:48:07.313Z,4.40
2019-01-26T19:51:09.970Z,4.40
2019-01-26T19:53:49.697Z,4.40
2019-01-26T19:59:39.617Z,4.50
2019-01-26T20:02:21.129Z,4.40
2019-01-26T20:05:02.614Z,4.50
2019-01-26T20:07:43.996Z,4.50
2019-01-26T20:13:33.343Z,4.50
2019-01-26T20:16:14.954Z,4.50
2019-01-26T20:18:55.914Z,4.50
2019-01-26T20:21:37.004Z,4.50
2019-01-26T20:24:17.536Z,4.50
2019-01-26T20:26:58.269Z,4.50
2019-01-26T20:29:38.912Z,4.50
2019-01-26T20:38:28.953Z,4.50
2019-01-26T20:41:10.394Z,4.50
2019-01-26T20:43:52.289Z,4.50
2019-01-26T20:46:33.400Z,4.40
2019-01-26T20:49:14.368Z,4.30
2019-01-26T20:51:56.027Z,4.40
2019-01-26T21:01:41.455Z,4.40
2019-01-26T21:07:57.688Z,4.40
2019-01-26T21:10:58.726Z,4.40
2019-01-26T21:16:58.229Z,4.30
2019-01-26T21:23:02.032Z,4.20
2019-01-26T21:32:15.827Z,4.30
2019-01-26T21:38:14.528Z,4.30
2019-01-26T21:44:30.339Z,4.40
2019-01-26T21:47:40.085Z,4.40
2019-01-26T21:54:19.545Z,4.40
2019-01-26T21:57:07.461Z,4.40
2019-01-26T22:06:55.434Z,4.40
2019-01-26T22:09:55.305Z,4.40
2019-01-26T22:15:41.336Z,4.40
2019-01-26T22:21:30.521Z,4.40
2019-01-26T22:24:12.027Z,4.50
2019-01-26T22:30:12.732Z,4.50
2019-01-26T22:36:02.551Z,4.50
2019-01-26T22:38:43.335Z,4.50
2019-01-26T22:41:23.491Z,4.50
2019-01-26T22:44:12.768Z,4.60
2019-01-26T22:50:46.384Z,4.60
2019-01-26T22:53:33.353Z,4.60
2019-01-26T22:56:22.089Z,4.50
2019-01-26T22:59:17.833Z,4.40
2019-01-26T23:02:23.722Z,4.30
2019-01-26T23:05:04.910Z,4.30
2019-01-26T23:07:45.935Z,4.40
2019-01-26T23:10:27.401Z,4.40
2019-01-26T23:13:22.783Z,4.30
2019-01-26T23:20:02.847Z,4.30
2019-01-26T23:23:11.208Z,4.50
2019-01-26T23:26:19.101Z,4.60
2019-01-26T23:29:16.186Z,4.60
2019-01-26T23:32:04.700Z,4.50
2019-01-26T23:34:53.152Z,4.50
2019-01-26T23:37:25.297Z,4.60
2019-01-26T23:40:15.701Z,4.60
2019-01-26T23:43:05.515Z,4.60
2019-01-26T23:45:55.412Z,4.60
2019-01-26T23:48:26.671Z,4.50
2019-01-26T23:51:17.136Z,4.50
2019-01-26T23:54:08.377Z,4.40
2019-01-26T23:56:57.569Z,4.40
2019-01-26T23:59:46.880Z,4.40
